Time;durP1;ratioP1;P1;durP2;ratioP2;P2;SDS_P1;SDS_P2;PMS_P1;PMS_P2;Temp;Humidity;BMP_temperature;BMP_pressure;BME280_temperature;BME280_humidity;BME280_pressure;Samples;Min_cycle;Max_cycle;Signal;HPM_P1;HPM_P2
2022/05/11 00:00:49;;;;;;;4.53;2.78;;;;;;;;;;5010309;28;20065;-65
2022/05/11 00:03:15;;;;;;;4.85;2.80;;;;;;;;;;5010164;28;20125;-66
2022/05/11 00:05:40;;;;;;;6.75;3.00;;;;;;;;;;5011850;28;20326;-66
2022/05/11 00:08:07;;;;;;;5.80;2.97;;;;;;;;;;5008191;28;20436;-65
2022/05/11 00:10:33;;;;;;;5.20;2.85;;;;;;;;;;5010922;28;20033;-65
2022/05/11 00:13:00;;;;;;;5.00;2.70;;;;;;;;;;5010647;28;20041;-65
2022/05/11 00:15:26;;;;;;;7.25;2.95;;;;;;;;;;5005682;28;20062;-65
2022/05/11 00:17:52;;;;;;;5.63;2.72;;;;;;;;;;5009614;28;20045;-65
2022/05/11 00:20:19;;;;;;;4.25;2.75;;;;;;;;;;5010752;28;20328;-65
2022/05/11 00:25:31;;;;;;;5.78;2.90;;;;;;;;;;5003324;28;20061;-66
2022/05/11 00:27:58;;;;;;;5.50;2.63;;;;;;;;;;4993692;28;20483;-65
2022/05/11 00:30:25;;;;;;;6.03;2.90;;;;;;;;;;5009607;28;20026;-64
2022/05/11 00:32:56;;;;;;;5.30;3.00;;;;;;;;;;5009998;28;20416;-65
2022/05/11 00:35:22;;;;;;;10.27;2.75;;;;;;;;;;5007056;28;20086;-65
2022/05/11 00:37:48;;;;;;;6.55;2.90;;;;;;;;;;5010922;28;20057;-66
2022/05/11 00:40:16;;;;;;;5.25;2.63;;;;;;;;;;5010798;28;20080;-65
2022/05/11 00:42:41;;;;;;;5.97;2.95;;;;;;;;;;5009683;28;20045;-65
2022/05/11 00:45:07;;;;;;;4.97;2.60;;;;;;;;;;5007551;28;20359;-65
2022/05/11 00:47:39;;;;;;;5.70;2.72;;;;;;;;;;5009654;28;20034;-65
2022/05/11 00:50:17;;;;;;;5.15;2.60;;;;;;;;;;5009741;28;20527;-65
2022/05/11 00:53:00;;;;;;;4.32;2.80;;;;;;;;;;5010434;28;20034;-65
2022/05/11 00:55:32;;;;;;;6.75;2.80;;;;;;;;;;5009725;28;20030;-65
2022/05/11 00:58:19;;;;;;;7.88;3.05;;;;;;;;;;5008728;28;20112;-65
2022/05/11 01:00:46;;;;;;;4.90;2.70;;;;;;;;;;4996461;28;20122;-65
2022/05/11 01:03:21;;;;;;;3.58;2.30;;;;;;;;;;5011148;28;20038;-65
2022/05/11 01:05:46;;;;;;;6.95;2.70;;;;;;;;;;5010259;28;20068;-65
2022/05/11 01:08:14;;;;;;;4.97;2.83;;;;;;;;;;5009482;28;20057;-65
2022/05/11 01:10:41;;;;;;;6.57;3.05;;;;;;;;;;5008696;28;20030;-65
2022/05/11 01:13:11;;;;;;;6.38;2.90;;;;;;;;;;5006288;28;20124;-65
2022/05/11 01:15:37;;;;;;;6.37;3.00;;;;;;;;;;4996770;28;20462;-65
2022/05/11 01:18:05;;;;;;;4.32;2.67;;;;;;;;;;5011721;28;20061;-66
2022/05/11 01:20:36;;;;;;;5.25;2.50;;;;;;;;;;5009073;28;20029;-65
2022/05/11 01:23:29;;;;;;;5.18;2.33;;;;;;;;;;5014672;28;20026;-65
2022/05/11 01:25:54;;;;;;;4.88;2.65;;;;;;;;;;5013367;28;20030;-66
2022/05/11 01:28:20;;;;;;;6.07;2.97;;;;;;;;;;5014805;28;20124;-66
2022/05/11 01:30:49;;;;;;;7.43;2.75;;;;;;;;;;5012008;28;20965;-65
2022/05/11 01:33:18;;;;;;;4.53;2.67;;;;;;;;;;5011516;28;20153;-66
2022/05/11 01:36:05;;;;;;;4.72;2.47;;;;;;;;;;5011156;28;20034;-67
2022/05/11 01:38:45;;;;;;;4.20;2.33;;;;;;;;;;5013899;28;20101;-65
2022/05/11 01:41:18;;;;;;;5.90;2.63;;;;;;;;;;5013958;28;20064;-65
2022/05/11 01:43:43;;;;;;;6.18;2.70;;;;;;;;;;5012116;28;20138;-65
2022/05/11 01:46:09;;;;;;;4.93;2.60;;;;;;;;;;5012271;28;20188;-65
2022/05/11 01:48:35;;;;;;;4.97;2.65;;;;;;;;;;5013151;28;20057;-65
2022/05/11 01:51:01;;;;;;;4.78;2.63;;;;;;;;;;5012924;28;20466;-65
2022/05/11 01:53:27;;;;;;;6.43;2.60;;;;;;;;;;5013664;28;20476;-65
2022/05/11 01:55:53;;;;;;;5.75;2.95;;;;;;;;;;5011675;28;20037;-66
2022/05/11 01:58:20;;;;;;;5.18;2.70;;;;;;;;;;5030297;28;20121;-65
2022/05/11 02:00:47;;;;;;;4.68;2.53;;;;;;;;;;5011260;28;20490;-64
2022/05/11 02:03:13;;;;;;;4.47;2.70;;;;;;;;;;5013210;28;20069;-66
2022/05/11 02:08:23;;;;;;;4.53;2.70;;;;;;;;;;5014172;28;20096;-65
2022/05/11 02:10:48;;;;;;;4.30;2.60;;;;;;;;;;5010006;28;20038;-65
2022/05/11 02:13:14;;;;;;;3.85;2.40;;;;;;;;;;5012563;28;20379;-65
2022/05/11 02:15:40;;;;;;;5.78;2.60;;;;;;;;;;5012653;28;20050;-65
2022/05/11 02:18:06;;;;;;;7.72;2.60;;;;;;;;;;5014077;28;20038;-66
2022/05/11 02:20:32;;;;;;;4.38;2.65;;;;;;;;;;5012102;28;20038;-65
2022/05/11 02:22:58;;;;;;;6.80;2.83;;;;;;;;;;5014058;28;20380;-66
2022/05/11 02:25:23;;;;;;;7.95;3.00;;;;;;;;;;5012674;28;20486;-65
2022/05/11 02:27:50;;;;;;;5.80;2.90;;;;;;;;;;5012047;28;20034;-65
2022/05/11 02:30:21;;;;;;;5.13;2.63;;;;;;;;;;5013436;28;20038;-66
2022/05/11 02:32:46;;;;;;;6.05;2.70;;;;;;;;;;5009262;28;20030;-65
2022/05/11 02:35:18;;;;;;;6.53;3.00;;;;;;;;;;5013888;28;20048;-65
2022/05/11 02:37:53;;;;;;;5.15;2.53;;;;;;;;;;5012733;28;20386;-65
2022/05/11 02:40:28;;;;;;;7.90;2.70;;;;;;;;;;5004276;28;20038;-65
2022/05/11 02:42:54;;;;;;;5.03;2.85;;;;;;;;;;5007492;28;20038;-66
2022/05/11 02:45:21;;;;;;;4.10;2.60;;;;;;;;;;5002654;28;20455;-66
2022/05/11 02:47:48;;;;;;;5.47;2.90;;;;;;;;;;5011542;28;20114;-66
2022/05/11 02:50:18;;;;;;;4.75;2.70;;;;;;;;;;5013324;28;20120;-66
2022/05/11 02:52:43;;;;;;;4.53;2.50;;;;;;;;;;5010610;28;20368;-66
2022/05/11 02:55:09;;;;;;;6.35;2.60;;;;;;;;;;5012874;28;20096;-66
2022/05/11 02:57:35;;;;;;;5.07;2.67;;;;;;;;;;5011706;28;20028;-66
2022/05/11 03:00:01;;;;;;;4.80;2.50;;;;;;;;;;5013212;28;20048;-66
2022/05/11 03:02:27;;;;;;;7.28;2.80;;;;;;;;;;5011242;28;20041;-66
2022/05/11 03:04:52;;;;;;;6.63;2.70;;;;;;;;;;5012001;28;20034;-66
2022/05/11 03:07:18;;;;;;;6.28;2.97;;;;;;;;;;5011668;28;20419;-66
2022/05/11 03:09:44;;;;;;;7.80;2.60;;;;;;;;;;5011983;28;20390;-66
2022/05/11 03:12:11;;;;;;;4.07;2.60;;;;;;;;;;5011916;28;20390;-66
2022/05/11 03:14:37;;;;;;;5.05;2.67;;;;;;;;;;5010817;28;20092;-65
2022/05/11 03:17:03;;;;;;;5.75;2.80;;;;;;;;;;5003991;28;20461;-65
2022/05/11 03:19:29;;;;;;;6.50;2.72;;;;;;;;;;5011809;28;20478;-65
2022/05/11 03:21:55;;;;;;;5.85;2.80;;;;;;;;;;5010803;28;20054;-66
2022/05/11 03:24:20;;;;;;;5.03;2.70;;;;;;;;;;5013283;28;20037;-65
2022/05/11 03:26:46;;;;;;;5.90;2.88;;;;;;;;;;5011893;28;20073;-65
2022/05/11 03:29:11;;;;;;;6.55;2.97;;;;;;;;;;5013385;28;20041;-66
2022/05/11 03:31:38;;;;;;;4.32;2.53;;;;;;;;;;5001429;28;20041;-65
2022/05/11 03:36:49;;;;;;;4.40;2.55;;;;;;;;;;5010356;28;20500;-66
2022/05/11 03:39:15;;;;;;;6.38;3.00;;;;;;;;;;5011428;28;20030;-65
2022/05/11 03:41:42;;;;;;;5.45;2.85;;;;;;;;;;5007618;28;20062;-64
2022/05/11 03:44:07;;;;;;;6.40;2.90;;;;;;;;;;4993080;28;20403;-65
2022/05/11 03:46:33;;;;;;;5.15;2.63;;;;;;;;;;4993208;28;20463;-65
2022/05/11 03:48:58;;;;;;;5.85;2.78;;;;;;;;;;4992320;28;20026;-65
2022/05/11 03:51:24;;;;;;;6.90;2.85;;;;;;;;;;4996925;28;20030;-65
2022/05/11 03:53:50;;;;;;;4.70;2.70;;;;;;;;;;5012214;28;20033;-65
2022/05/11 03:56:18;;;;;;;5.93;2.60;;;;;;;;;;5012636;28;20056;-65
2022/05/11 03:58:44;;;;;;;5.20;2.80;;;;;;;;;;5012124;28;20030;-65
2022/05/11 04:01:10;;;;;;;6.35;2.95;;;;;;;;;;5012794;28;20030;-64
2022/05/11 04:03:35;;;;;;;5.25;2.90;;;;;;;;;;5009492;28;20040;-65
2022/05/11 04:06:01;;;;;;;8.25;3.65;;;;;;;;;;5010527;28;20026;-64
2022/05/11 04:08:26;;;;;;;5.53;2.80;;;;;;;;;;5012877;28;20030;-65
2022/05/11 04:10:51;;;;;;;6.35;2.90;;;;;;;;;;5012266;28;20386;-65
2022/05/11 04:13:17;;;;;;;6.05;3.50;;;;;;;;;;5012920;28;20467;-64
2022/05/11 04:15:42;;;;;;;6.10;3.15;;;;;;;;;;5007030;28;20435;-64
2022/05/11 04:18:08;;;;;;;7.47;3.45;;;;;;;;;;4993377;28;20030;-64
2022/05/11 04:20:33;;;;;;;7.10;3.13;;;;;;;;;;4993289;28;20038;-64
2022/05/11 04:23:08;;;;;;;5.00;2.90;;;;;;;;;;4994648;28;20042;-64
2022/05/11 04:25:33;;;;;;;6.00;3.03;;;;;;;;;;5012806;28;20065;-65
2022/05/11 04:27:59;;;;;;;4.78;2.80;;;;;;;;;;5011723;28;20037;-64
2022/05/11 04:30:26;;;;;;;5.82;3.10;;;;;;;;;;5012433;28;20025;-65
2022/05/11 04:32:53;;;;;;;6.78;3.28;;;;;;;;;;5011493;28;20081;-64
2022/05/11 04:35:18;;;;;;;6.78;3.15;;;;;;;;;;5012362;28;20028;-64
2022/05/11 04:37:44;;;;;;;7.63;3.13;;;;;;;;;;5010661;28;20462;-64
2022/05/11 04:40:11;;;;;;;6.43;3.20;;;;;;;;;;5012265;28;20034;-64
2022/05/11 04:42:37;;;;;;;5.43;3.00;;;;;;;;;;5011928;28;20401;-63
2022/05/11 04:45:02;;;;;;;6.32;3.30;;;;;;;;;;5011495;28;20026;-63
2022/05/11 04:47:28;;;;;;;6.28;3.00;;;;;;;;;;5012176;28;20041;-64
2022/05/11 04:49:53;;;;;;;7.93;3.28;;;;;;;;;;5011404;28;20033;-63
2022/05/11 04:52:19;;;;;;;6.80;3.20;;;;;;;;;;5010181;28;20026;-64
2022/05/11 04:54:49;;;;;;;5.70;2.97;;;;;;;;;;5010681;28;20026;-64
2022/05/11 04:57:16;;;;;;;10.43;3.97;;;;;;;;;;5012189;28;20033;-65
2022/05/11 04:59:49;;;;;;;6.80;3.22;;;;;;;;;;5011323;28;20113;-64
2022/05/11 05:02:27;;;;;;;7.15;3.22;;;;;;;;;;5009481;28;20041;-64
2022/05/11 05:05:01;;;;;;;5.93;3.08;;;;;;;;;;5010963;28;20509;-64
2022/05/11 05:07:27;;;;;;;7.50;3.40;;;;;;;;;;5010320;28;20033;-64
2022/05/11 05:09:52;;;;;;;6.97;3.15;;;;;;;;;;5011059;28;20038;-64
2022/05/11 05:12:17;;;;;;;8.35;3.45;;;;;;;;;;5011903;28;20108;-63
2022/05/11 05:14:43;;;;;;;8.07;3.60;;;;;;;;;;5010036;28;20081;-64
2022/05/11 05:17:11;;;;;;;7.70;3.38;;;;;;;;;;5011385;28;20061;-65
2022/05/11 05:19:42;;;;;;;5.63;3.38;;;;;;;;;;5011659;28;20026;-64
2022/05/11 05:22:08;;;;;;;8.20;3.42;;;;;;;;;;5011747;28;20033;-64
2022/05/11 05:24:33;;;;;;;6.38;3.50;;;;;;;;;;5011722;28;20063;-64
2022/05/11 05:26:59;;;;;;;5.50;3.33;;;;;;;;;;5011024;28;20459;-63
2022/05/11 05:32:38;;;;;;;7.38;3.20;;;;;;;;;;5005530;28;20068;-64
2022/05/11 05:35:05;;;;;;;7.82;3.60;;;;;;;;;;5010847;28;20501;-64
2022/05/11 05:37:30;;;;;;;7.90;3.22;;;;;;;;;;5011681;28;20370;-64
2022/05/11 05:39:56;;;;;;;7.60;3.28;;;;;;;;;;5011018;28;20504;-64
2022/05/11 05:42:24;;;;;;;6.32;3.40;;;;;;;;;;5011487;28;20057;-64
2022/05/11 05:44:49;;;;;;;6.65;3.08;;;;;;;;;;5025201;28;20026;-65
2022/05/11 05:47:18;;;;;;;9.52;3.40;;;;;;;;;;5011567;28;20037;-64
2022/05/11 05:49:44;;;;;;;8.48;3.53;;;;;;;;;;5011031;28;20045;-65
2022/05/11 05:52:16;;;;;;;9.80;3.40;;;;;;;;;;5011490;28;20034;-65
2022/05/11 05:54:41;;;;;;;6.05;3.28;;;;;;;;;;5011338;28;20420;-64
2022/05/11 05:57:07;;;;;;;6.05;3.40;;;;;;;;;;5010927;28;20030;-65
2022/05/11 05:59:32;;;;;;;7.82;3.60;;;;;;;;;;5009606;28;20034;-64
2022/05/11 06:01:57;;;;;;;7.65;3.22;;;;;;;;;;5009894;28;20505;-66
2022/05/11 06:04:23;;;;;;;6.30;3.35;;;;;;;;;;5011512;28;20038;-65
2022/05/11 06:07:02;;;;;;;9.23;3.20;;;;;;;;;;5012558;28;20041;-62
2022/05/11 06:09:28;;;;;;;4.82;2.90;;;;;;;;;;5014934;28;20030;-66
2022/05/11 06:11:54;;;;;;;6.20;3.00;;;;;;;;;;5014144;28;20029;-62
2022/05/11 06:14:19;;;;;;;7.05;3.20;;;;;;;;;;5013904;28;20476;-64
2022/05/11 06:16:44;;;;;;;8.73;3.42;;;;;;;;;;4995255;28;20042;-65
2022/05/11 06:19:10;;;;;;;7.45;3.15;;;;;;;;;;4994865;28;20034;-65
2022/05/11 06:21:36;;;;;;;6.93;3.40;;;;;;;;;;5010233;28;20113;-64
2022/05/11 06:24:01;;;;;;;6.47;3.42;;;;;;;;;;5005605;28;20042;-64
2022/05/11 06:26:27;;;;;;;6.45;3.17;;;;;;;;;;5014438;28;20070;-65
2022/05/11 06:28:52;;;;;;;9.70;3.38;;;;;;;;;;5013943;28;20108;-65
2022/05/11 06:31:18;;;;;;;8.75;3.30;;;;;;;;;;5013757;28;20033;-65
2022/05/11 06:33:46;;;;;;;6.28;3.10;;;;;;;;;;5014367;28;20044;-65
2022/05/11 06:36:11;;;;;;;7.85;3.40;;;;;;;;;;5013962;28;20034;-64
2022/05/11 06:38:37;;;;;;;5.40;3.30;;;;;;;;;;5013544;28;20038;-63
2022/05/11 06:41:17;;;;;;;8.07;3.20;;;;;;;;;;5013439;28;20464;-65
2022/05/11 06:43:44;;;;;;;7.95;3.63;;;;;;;;;;5013996;28;20062;-64
2022/05/11 06:46:10;;;;;;;8.27;3.45;;;;;;;;;;5013706;28;20125;-64
2022/05/11 06:48:35;;;;;;;5.65;3.28;;;;;;;;;;5014414;28;20109;-64
2022/05/11 06:51:01;;;;;;;5.82;3.13;;;;;;;;;;5013368;28;20025;-64
2022/05/11 06:53:27;;;;;;;11.15;3.80;;;;;;;;;;5013488;28;20418;-65
2022/05/11 07:01:21;;;;;;;6.22;3.38;;;;;;;;;;4994869;28;20049;-65
2022/05/11 07:03:46;;;;;;;5.13;3.20;;;;;;;;;;5005136;28;20109;-64
2022/05/11 07:06:12;;;;;;;7.60;3.88;;;;;;;;;;5013230;28;20449;-70
2022/05/11 07:08:40;;;;;;;9.98;3.50;;;;;;;;;;5013977;28;20053;-67
2022/05/11 07:13:53;;;;;;;9.93;4.25;;;;;;;;;;5012492;28;20126;-65
2022/05/11 07:16:19;;;;;;;9.93;5.10;;;;;;;;;;4995267;28;20058;-65
2022/05/11 07:18:45;;;;;;;8.80;5.00;;;;;;;;;;4993114;28;20386;-66
2022/05/11 07:21:10;;;;;;;21.48;5.40;;;;;;;;;;5008165;28;20037;-66
2022/05/11 07:23:36;;;;;;;8.77;5.50;;;;;;;;;;4994040;28;20027;-65
2022/05/11 07:26:02;;;;;;;11.60;5.85;;;;;;;;;;4993100;28;20030;-65
2022/05/11 07:28:27;;;;;;;10.52;6.00;;;;;;;;;;4993988;28;20022;-66
2022/05/11 07:30:54;;;;;;;11.30;5.82;;;;;;;;;;5009018;28;20136;-65
2022/05/11 07:33:19;;;;;;;13.43;5.88;;;;;;;;;;5013355;28;20125;-65
2022/05/11 07:35:48;;;;;;;8.82;5.38;;;;;;;;;;5013312;28;20037;-66
2022/05/11 07:38:17;;;;;;;12.30;6.13;;;;;;;;;;5012733;28;20034;-67
2022/05/11 07:40:44;;;;;;;12.02;6.45;;;;;;;;;;5013329;28;20026;-66
2022/05/11 07:43:10;;;;;;;12.73;5.85;;;;;;;;;;5012276;28;20045;-65
2022/05/11 07:45:37;;;;;;;14.32;5.97;;;;;;;;;;5010225;28;20112;-66
2022/05/11 07:48:03;;;;;;;17.25;6.40;;;;;;;;;;5011919;28;20034;-66
2022/05/11 07:50:30;;;;;;;13.57;6.85;;;;;;;;;;5013120;28;20034;-64
2022/05/11 07:52:56;;;;;;;14.55;6.60;;;;;;;;;;5011966;28;20118;-64
2022/05/11 07:55:24;;;;;;;12.95;6.68;;;;;;;;;;5012786;28;20138;-64
2022/05/11 08:00:34;;;;;;;9.40;4.95;;;;;;;;;;4997057;28;20093;-65
2022/05/11 08:03:00;;;;;;;11.05;4.95;;;;;;;;;;4992428;28;20030;-65
2022/05/11 08:05:25;;;;;;;14.80;5.10;;;;;;;;;;4992829;28;20129;-65
2022/05/11 08:07:56;;;;;;;11.57;4.85;;;;;;;;;;4992543;28;20474;-65
2022/05/11 08:10:24;;;;;;;;;;;;;;;;;;4993541;28;20038;-65
2022/05/11 08:12:52;;;;;;;12.55;4.47;;;;;;;;;;4993166;28;19913;-65
2022/05/11 08:15:18;;;;;;;10.23;4.65;;;;;;;;;;5005713;28;20029;-65
2022/05/11 08:17:46;;;;;;;8.10;3.80;;;;;;;;;;5012618;28;20179;-65
2022/05/11 08:20:15;;;;;;;8.02;3.67;;;;;;;;;;5011713;28;20018;-64
2022/05/11 08:22:42;;;;;;;8.95;3.75;;;;;;;;;;5012658;28;20101;-65
2022/05/11 08:25:10;;;;;;;7.68;3.28;;;;;;;;;;5011584;28;20041;-64
2022/05/11 08:27:36;;;;;;;5.93;2.60;;;;;;;;;;5012292;28;20061;-65
2022/05/11 08:35:32;;;;;;;8.90;2.50;;;;;;;;;;5012055;28;20044;-64
2022/05/11 08:37:57;;;;;;;4.85;2.40;;;;;;;;;;5011239;28;20029;-65
2022/05/11 08:40:45;;;;;;;5.55;2.60;;;;;;;;;;5011933;28;20029;-64
2022/05/11 08:43:13;;;;;;;5.45;2.30;;;;;;;;;;5011331;28;20050;-65
2022/05/11 08:46:00;;;;;;;6.00;2.40;;;;;;;;;;5009357;28;20379;-65
2022/05/11 08:48:47;;;;;;;7.18;3.00;;;;;;;;;;5011996;28;20026;-64
2022/05/11 08:51:37;;;;;;;7.38;2.88;;;;;;;;;;5011444;28;20141;-65
2022/05/11 08:54:19;;;;;;;6.03;3.13;;;;;;;;;;5011403;28;20034;-65
2022/05/11 08:56:46;;;;;;;4.05;2.40;;;;;;;;;;5011051;28;20086;-64
2022/05/11 08:59:19;;;;;;;5.40;2.83;;;;;;;;;;5010552;28;20088;-65
2022/05/11 09:02:43;;;;;;;7.90;2.92;;;;;;;;;;5012088;28;20030;-65
2022/05/11 09:05:09;;;;;;;5.53;2.70;;;;;;;;;;4988254;28;20050;-65
2022/05/11 09:07:38;;;;;;;4.22;2.60;;;;;;;;;;5011986;28;20113;-64
2022/05/11 09:10:05;;;;;;;5.85;2.75;;;;;;;;;;5010910;28;20410;-65
2022/05/11 09:12:31;;;;;;;6.07;2.88;;;;;;;;;;5008838;28;20026;-65
2022/05/11 09:14:59;;;;;;;10.15;2.30;;;;;;;;;;5007063;28;20088;-65
2022/05/11 09:17:28;;;;;;;6.25;2.80;;;;;;;;;;5011884;28;20073;-65
2022/05/11 09:20:08;;;;;;;4.13;2.47;;;;;;;;;;5011407;28;20033;-65
2022/05/11 09:22:40;;;;;;;5.57;2.83;;;;;;;;;;5012084;28;20366;-65
2022/05/11 09:25:17;;;;;;;6.38;2.72;;;;;;;;;;5026289;28;20030;-65
2022/05/11 09:27:43;;;;;;;7.43;3.00;;;;;;;;;;5011826;28;20038;-65
2022/05/11 09:30:30;;;;;;;8.75;2.75;;;;;;;;;;5010032;28;20041;-65
2022/05/11 09:33:22;;;;;;;9.00;3.20;;;;;;;;;;5011795;28;20121;-64
2022/05/11 09:35:48;;;;;;;5.22;3.00;;;;;;;;;;5004658;28;20505;-64
2022/05/11 09:38:19;;;;;;;8.18;3.10;;;;;;;;;;5009700;28;20092;-64
2022/05/11 09:40:54;;;;;;;8.23;3.30;;;;;;;;;;5011665;28;20040;-65
2022/05/11 09:43:56;;;;;;;6.63;3.25;;;;;;;;;;5014567;28;20076;-64
2022/05/11 09:46:31;;;;;;;6.20;3.28;;;;;;;;;;5012786;28;20034;-64
2022/05/11 09:49:24;;;;;;;5.55;2.78;;;;;;;;;;5015211;28;20068;-65
2022/05/11 09:51:50;;;;;;;10.55;3.22;;;;;;;;;;5015092;28;20029;-65
2022/05/11 09:54:18;;;;;;;5.95;3.00;;;;;;;;;;5014504;28;20033;-64
2022/05/11 09:56:49;;;;;;;5.88;3.60;;;;;;;;;;5015315;28;20382;-64
2022/05/11 09:59:31;;;;;;;5.03;3.10;;;;;;;;;;5013906;28;20064;-64
2022/05/11 10:02:44;;;;;;;6.78;2.85;;;;;;;;;;5013657;28;20022;-65
2022/05/11 10:05:20;;;;;;;6.68;3.03;;;;;;;;;;4996517;28;20045;-65
2022/05/11 10:07:48;;;;;;;6.50;3.50;;;;;;;;;;5015049;28;20486;-65
2022/05/11 10:10:29;;;;;;;8.05;3.20;;;;;;;;;;5013675;28;20409;-65
2022/05/11 10:13:00;;;;;;;8.15;3.58;;;;;;;;;;5012240;28;20030;-65
2022/05/11 10:24:26;;;;;;;12.00;3.70;;;;;;;;;;5013698;28;20045;-65
2022/05/11 10:27:03;;;;;;;7.70;3.50;;;;;;;;;;5011678;28;20030;-64
2022/05/11 10:30:03;;;;;;;5.72;3.25;;;;;;;;;;5014319;28;20033;-65
2022/05/11 10:33:07;;;;;;;7.60;3.25;;;;;;;;;;5014396;28;20037;-65
2022/05/11 10:35:50;;;;;;;10.40;3.53;;;;;;;;;;5014486;28;20462;-64
2022/05/11 10:38:39;;;;;;;5.97;3.80;;;;;;;;;;5013739;28;20033;-65
2022/05/11 10:41:09;;;;;;;5.97;3.30;;;;;;;;;;5012701;28;20029;-64
2022/05/11 10:43:52;;;;;;;6.97;3.38;;;;;;;;;;5013604;28;20049;-65
2022/05/11 10:46:37;;;;;;;4.82;3.20;;;;;;;;;;5013385;28;20034;-65
2022/05/11 10:49:08;;;;;;;6.75;3.50;;;;;;;;;;5013718;28;20108;-64
2022/05/11 10:51:58;;;;;;;11.60;3.60;;;;;;;;;;5013791;28;20552;-65
2022/05/11 10:54:44;;;;;;;7.65;3.50;;;;;;;;;;5012266;28;20026;-65
2022/05/11 10:57:14;;;;;;;8.10;3.63;;;;;;;;;;5013662;28;20113;-65
2022/05/11 11:00:12;;;;;;;10.23;3.40;;;;;;;;;;5014412;28;20040;-65
2022/05/11 11:03:01;;;;;;;7.45;3.78;;;;;;;;;;5013970;28;20029;-65
2022/05/11 11:09:15;;;;;;;5.95;3.30;;;;;;;;;;5013753;28;20129;-65
2022/05/11 11:12:08;;;;;;;6.53;3.60;;;;;;;;;;5008803;28;20125;-65
2022/05/11 11:14:38;;;;;;;6.68;3.78;;;;;;;;;;4994227;28;20041;-65
2022/05/11 11:17:07;;;;;;;11.00;3.50;;;;;;;;;;4992100;28;20034;-64
2022/05/11 11:19:34;;;;;;;10.13;3.58;;;;;;;;;;4994290;28;20383;-65
2022/05/11 11:22:01;;;;;;;4.53;2.70;;;;;;;;;;4994065;28;20427;-65
2022/05/11 11:24:29;;;;;;;8.43;3.47;;;;;;;;;;4993499;28;20033;-65
2022/05/11 11:26:57;;;;;;;6.70;3.28;;;;;;;;;;5006042;28;20118;-65
2022/05/11 11:30:07;;;;;;;6.72;3.22;;;;;;;;;;5012390;28;20049;-64
2022/05/11 11:32:32;;;;;;;8.80;3.33;;;;;;;;;;4993163;28;20050;-65
2022/05/11 11:35:23;;;;;;;5.40;3.45;;;;;;;;;;5012090;28;20042;-65
2022/05/11 11:37:59;;;;;;;6.88;3.10;;;;;;;;;;5013610;28;20032;-65
2022/05/11 11:40:27;;;;;;;8.65;3.50;;;;;;;;;;5010200;28;20065;-65
2022/05/11 11:42:53;;;;;;;6.03;3.05;;;;;;;;;;5028145;28;20097;-65
2022/05/11 11:45:26;;;;;;;7.88;3.35;;;;;;;;;;5012255;28;20091;-65
2022/05/11 11:48:04;;;;;;;8.98;3.30;;;;;;;;;;5013167;28;20040;-65
2022/05/11 11:50:44;;;;;;;7.38;3.35;;;;;;;;;;5012592;28;20167;-66
2022/05/11 11:53:20;;;;;;;6.97;3.08;;;;;;;;;;5012149;28;20041;-65
2022/05/11 11:55:46;;;;;;;9.13;3.17;;;;;;;;;;5010137;28;20037;-65
2022/05/11 11:58:26;;;;;;;7.63;2.80;;;;;;;;;;5012201;28;20483;-65
2022/05/11 12:01:19;;;;;;;8.45;3.00;;;;;;;;;;5013044;28;20033;-65
2022/05/11 12:03:57;;;;;;;4.75;3.00;;;;;;;;;;5012990;28;20045;-65
2022/05/11 12:15:03;;;;;;;5.43;2.47;;;;;;;;;;5012583;28;20133;-65
2022/05/11 12:17:37;;;;;;;6.45;3.00;;;;;;;;;;5011846;28;20030;-66
2022/05/11 12:20:08;;;;;;;5.75;2.60;;;;;;;;;;5012613;28;20037;-65
2022/05/11 12:22:44;;;;;;;7.10;2.92;;;;;;;;;;5011429;28;20041;-65
2022/05/11 12:25:09;;;;;;;8.35;2.30;;;;;;;;;;5005674;28;20394;-65
2022/05/11 12:27:36;;;;;;;10.82;2.65;;;;;;;;;;5012514;28;20025;-65
2022/05/11 12:30:15;;;;;;;12.60;2.60;;;;;;;;;;5012876;28;20041;-64
2022/05/11 12:33:08;;;;;;;10.30;2.53;;;;;;;;;;5013740;28;20026;-65
2022/05/11 12:35:41;;;;;;;7.80;2.55;;;;;;;;;;5011728;28;20049;-65
2022/05/11 12:38:12;;;;;;;7.35;2.53;;;;;;;;;;5012453;28;20041;-66
2022/05/11 12:40:47;;;;;;;6.47;2.53;;;;;;;;;;5012046;28;20037;-65
2022/05/11 12:43:22;;;;;;;10.77;2.42;;;;;;;;;;5011160;28;20046;-66
2022/05/11 12:45:47;;;;;;;5.18;2.53;;;;;;;;;;5011109;28;20030;-65
2022/05/11 12:48:28;;;;;;;13.40;2.80;;;;;;;;;;5011290;28;20061;-66
2022/05/11 12:51:04;;;;;;;10.30;2.50;;;;;;;;;;5009502;28;20039;-66
2022/05/11 12:53:36;;;;;;;8.93;2.53;;;;;;;;;;5011471;28;20393;-65
2022/05/11 12:56:27;;;;;;;4.03;2.30;;;;;;;;;;5012237;28;20177;-65
2022/05/11 12:58:56;;;;;;;8.00;2.60;;;;;;;;;;5012186;28;20038;-65
2022/05/11 13:01:24;;;;;;;9.50;2.30;;;;;;;;;;5011200;28;20034;-65
2022/05/11 13:03:54;;;;;;;6.15;2.50;;;;;;;;;;5011962;28;20034;-65
2022/05/11 13:06:36;;;;;;;6.45;2.78;;;;;;;;;;5008615;28;20026;-65
2022/05/11 13:09:18;;;;;;;6.07;2.45;;;;;;;;;;5012090;28;20034;-65
2022/05/11 13:11:45;;;;;;;17.98;2.83;;;;;;;;;;5011921;28;20041;-65
2022/05/11 13:14:18;;;;;;;9.20;2.53;;;;;;;;;;5011843;28;20105;-65
2022/05/11 13:16:51;;;;;;;6.85;2.70;;;;;;;;;;5012743;28;20122;-65
2022/05/11 13:19:29;;;;;;;5.70;2.20;;;;;;;;;;5015298;28;20378;-64
2022/05/11 13:21:57;;;;;;;3.97;2.10;;;;;;;;;;5014167;28;20041;-65
2022/05/11 13:25:06;;;;;;;5.00;2.03;;;;;;;;;;5015249;28;20034;-65
2022/05/11 13:27:48;;;;;;;8.05;2.15;;;;;;;;;;4976993;28;20048;-65
2022/05/11 13:30:19;;;;;;;5.53;2.28;;;;;;;;;;5014311;28;20534;-65
2022/05/11 13:32:48;;;;;;;5.80;2.42;;;;;;;;;;5015907;28;20045;-65
2022/05/11 13:35:19;;;;;;;3.70;2.10;;;;;;;;;;5014869;28;20030;-65
2022/05/11 13:38:00;;;;;;;8.93;2.20;;;;;;;;;;5015239;28;20033;-66
2022/05/11 13:40:28;;;;;;;6.70;2.20;;;;;;;;;;5014602;28;20453;-65
2022/05/11 13:42:54;;;;;;;3.22;2.13;;;;;;;;;;5013915;28;20509;-66
2022/05/11 13:45:22;;;;;;;9.05;2.45;;;;;;;;;;5000788;28;20109;-65
2022/05/11 13:50:38;;;;;;;10.55;2.45;;;;;;;;;;5014918;28;20048;-65
2022/05/11 13:53:15;;;;;;;3.83;2.20;;;;;;;;;;5015358;28;20037;-65
2022/05/11 13:55:43;;;;;;;3.72;2.20;;;;;;;;;;5015279;28;20026;-65
2022/05/11 13:58:29;;;;;;;5.50;2.22;;;;;;;;;;5015242;28;20065;-66
2022/05/11 14:01:09;;;;;;;7.10;2.30;;;;;;;;;;5012764;28;20045;-65
2022/05/11 14:03:42;;;;;;;7.25;2.33;;;;;;;;;;5014711;28;20858;-66
2022/05/11 14:06:13;;;;;;;4.55;2.25;;;;;;;;;;5015131;28;20108;-65
2022/05/11 14:08:38;;;;;;;3.70;2.33;;;;;;;;;;5014624;28;20113;-65
2022/05/11 14:11:04;;;;;;;12.40;2.70;;;;;;;;;;5014856;28;20120;-65
2022/05/11 14:13:29;;;;;;;7.85;2.40;;;;;;;;;;5014173;28;20025;-64
2022/05/11 14:15:55;;;;;;;8.40;2.55;;;;;;;;;;5012095;28;20022;-65
2022/05/11 14:18:24;;;;;;;5.20;2.35;;;;;;;;;;5013431;28;20116;-64
2022/05/11 14:20:50;;;;;;;4.03;2.40;;;;;;;;;;5010477;28;20477;-65
2022/05/11 14:23:15;;;;;;;6.78;2.40;;;;;;;;;;5014250;28;20081;-65
2022/05/11 14:25:41;;;;;;;6.00;2.03;;;;;;;;;;5014721;28;20045;-65
2022/05/11 14:28:06;;;;;;;4.47;2.22;;;;;;;;;;5014404;28;20544;-65
2022/05/11 14:30:34;;;;;;;7.68;2.28;;;;;;;;;;5013673;28;20033;-65
2022/05/11 14:33:00;;;;;;;7.70;2.40;;;;;;;;;;5029663;28;20037;-65
2022/05/11 14:35:26;;;;;;;7.20;2.83;;;;;;;;;;5011397;28;20129;-65
2022/05/11 14:37:53;;;;;;;5.72;2.47;;;;;;;;;;5014333;28;20029;-66
2022/05/11 14:40:25;;;;;;;4.22;2.20;;;;;;;;;;5013518;28;20550;-65
2022/05/11 14:42:51;;;;;;;4.95;2.60;;;;;;;;;;5014486;28;20050;-65
2022/05/11 14:45:16;;;;;;;6.80;2.42;;;;;;;;;;5013738;28;20116;-66
2022/05/11 14:47:43;;;;;;;5.18;2.50;;;;;;;;;;5013834;28;20561;-65
2022/05/11 14:50:20;;;;;;;5.05;2.20;;;;;;;;;;5007669;28;20121;-65
2022/05/11 14:52:46;;;;;;;6.97;2.40;;;;;;;;;;4994820;28;20042;-65
2022/05/11 14:55:12;;;;;;;8.25;2.65;;;;;;;;;;4994662;28;20030;-65
2022/05/11 15:03:07;;;;;;;7.32;2.15;;;;;;;;;;5013853;28;20387;-66
2022/05/11 15:05:33;;;;;;;5.85;2.10;;;;;;;;;;5012889;28;20525;-66
2022/05/11 15:07:58;;;;;;;10.63;2.28;;;;;;;;;;5014080;28;20034;-66
2022/05/11 15:10:24;;;;;;;5.00;2.72;;;;;;;;;;5013326;28;20438;-66
2022/05/11 15:15:34;;;;;;;6.90;2.03;;;;;;;;;;5012026;28;20040;-67
2022/05/11 15:18:11;;;;;;;4.90;2.33;;;;;;;;;;5013367;28;20099;-65
2022/05/11 15:20:37;;;;;;;8.00;2.20;;;;;;;;;;5013101;28;20053;-66
2022/05/11 15:23:03;;;;;;;4.82;1.85;;;;;;;;;;5013766;28;20029;-67
2022/05/11 15:25:29;;;;;;;7.63;2.00;;;;;;;;;;5012730;28;20034;-66
2022/05/11 15:27:55;;;;;;;4.28;2.10;;;;;;;;;;5013367;28;20037;-65
2022/05/11 15:30:22;;;;;;;8.02;2.10;;;;;;;;;;5009136;28;20129;-66
2022/05/11 15:32:48;;;;;;;4.88;2.00;;;;;;;;;;5013551;28;20037;-65
2022/05/11 15:35:16;;;;;;;5.53;2.08;;;;;;;;;;5013452;28;20080;-66
2022/05/11 15:37:42;;;;;;;4.35;1.92;;;;;;;;;;5012831;28;20034;-65
2022/05/11 15:40:08;;;;;;;6.25;2.03;;;;;;;;;;5012799;28;20125;-65
2022/05/11 15:42:35;;;;;;;5.97;2.42;;;;;;;;;;5011027;28;20129;-65
2022/05/11 15:45:02;;;;;;;7.80;2.00;;;;;;;;;;5002466;28;20034;-66
2022/05/11 15:47:27;;;;;;;5.40;2.00;;;;;;;;;;4992725;28;20113;-66
2022/05/11 15:49:53;;;;;;;6.38;1.95;;;;;;;;;;4993605;28;20109;-65
2022/05/11 15:52:21;;;;;;;7.00;1.88;;;;;;;;;;4997376;28;20040;-65
2022/05/11 15:54:47;;;;;;;11.02;2.05;;;;;;;;;;4993480;28;20101;-66
2022/05/11 15:57:14;;;;;;;2.78;1.90;;;;;;;;;;4993083;28;20341;-66
2022/05/11 15:59:39;;;;;;;4.57;2.00;;;;;;;;;;4997430;28;20025;-65